Lima, Ohio
Current Conditions -  °F | °C
As of 7:53 AM on Sunday 21 Dec 2014 (Local Time) from KAOH Reporting Station
Haze Haze  
Wind Chill: 26°   Ceiling: 5500
Heat Index: 26°   Visibility: 2.5mi
Dew Point: 22°   Wind: 3mph
Humidity: 84%   Direction: 170°S
Pressure: 30.3"   Gusts: NA
Location:  40.74°N, 84.11°W
Report Text: KAOH 211253Z AUTO 17003KT 2 1/2SM BR OVC055 M03/M06 A3030 RMK AO2 SLP271 T10331056
Loading
Personal Weather Stations






























Interactive Weather Map New forecast layout! Learn more

10-Day Weather Forecast

Advertisements
Track Severe Weather on mobile